sensor_id;sensor_type;location;lat;lon;timestamp;temperature;humidity
6863;DHT22;3470;48.738;9.616;2023-01-19T09:22:15;2.80;99.90
6863;DHT22;3470;48.738;9.616;2023-01-19T09:24:41;3.10;99.90
6863;DHT22;3470;48.738;9.616;2023-01-19T09:27:07;3.00;99.90
6863;DHT22;3470;48.738;9.616;2023-01-19T09:29:32;3.00;99.90
6863;DHT22;3470;48.738;9.616;2023-01-19T09:31:58;2.60;99.90
6863;DHT22;3470;48.738;9.616;2023-01-19T09:34:23;2.30;99.90
6863;DHT22;3470;48.738;9.616;2023-01-19T09:36:52;1.80;99.90
6863;DHT22;3470;48.738;9.616;2023-01-19T09:39:17;2.30;99.90
6863;DHT22;3470;48.738;9.616;2023-01-19T09:41:48;3.80;99.90
6863;DHT22;3470;48.738;9.616;2023-01-19T09:44:28;5.20;98.10
6863;DHT22;3470;48.738;9.616;2023-01-19T09:46:56;6.20;95.30
6863;DHT22;3470;48.738;9.616;2023-01-19T09:49:35;5.60;95.20
6863;DHT22;3470;48.738;9.616;2023-01-19T09:52:01;4.40;95.50
6863;DHT22;3470;48.738;9.616;2023-01-19T09:54:49;3.10;96.50
6863;DHT22;3470;48.738;9.616;2023-01-19T09:57:17;2.40;98.00
6863;DHT22;3470;48.738;9.616;2023-01-19T09:59:43;1.60;98.50
6863;DHT22;3470;48.738;9.616;2023-01-19T10:07:48;1.00;99.90
6863;DHT22;3470;48.738;9.616;2023-01-19T10:10:30;1.00;99.90
6863;DHT22;3470;48.738;9.616;2023-01-19T10:16:23;1.10;99.90
6863;DHT22;3470;48.738;9.616;2023-01-19T10:18:54;1.10;99.90
6863;DHT22;3470;48.738;9.616;2023-01-19T10:21:42;1.80;99.90
6863;DHT22;3470;48.738;9.616;2023-01-19T10:26:55;3.30;96.10
6863;DHT22;3470;48.738;9.616;2023-01-19T10:29:25;2.90;95.50
6863;DHT22;3470;48.738;9.616;2023-01-19T10:32:14;2.60;97.00
6863;DHT22;3470;48.738;9.616;2023-01-19T10:34:45;2.70;96.80
6863;DHT22;3470;48.738;9.616;2023-01-19T10:39:47;2.40;96.70
6863;DHT22;3470;48.738;9.616;2023-01-19T10:42:16;2.30;96.60
6863;DHT22;3470;48.738;9.616;2023-01-19T10:44:43;2.20;97.10
6863;DHT22;3470;48.738;9.616;2023-01-19T10:47:18;1.80;97.20
6863;DHT22;3470;48.738;9.616;2023-01-19T10:49:44;1.30;97.60
6863;DHT22;3470;48.738;9.616;2023-01-19T10:54:55;1.10;99.50
6863;DHT22;3470;48.738;9.616;2023-01-19T10:57:40;1.20;99.30
6863;DHT22;3470;48.738;9.616;2023-01-19T11:00:29;1.10;99.30
6863;DHT22;3470;48.738;9.616;2023-01-19T11:02:55;1.20;99.70
6863;DHT22;3470;48.738;9.616;2023-01-19T11:05:24;1.10;99.50
6863;DHT22;3470;48.738;9.616;2023-01-19T11:07:50;1.20;99.50
6863;DHT22;3470;48.738;9.616;2023-01-19T11:12:56;1.50;99.40
6863;DHT22;3470;48.738;9.616;2023-01-19T11:15:27;1.80;99.00
6863;DHT22;3470;48.738;9.616;2023-01-19T11:17:54;1.90;98.60
6863;DHT22;3470;48.738;9.616;2023-01-19T11:20:26;2.10;98.30
6863;DHT22;3470;48.738;9.616;2023-01-19T11:23:27;2.30;98.20
6863;DHT22;3470;48.738;9.616;2023-01-19T11:25:56;2.40;98.00
6863;DHT22;3470;48.738;9.616;2023-01-19T11:28:30;2.50;97.30
6863;DHT22;3470;48.738;9.616;2023-01-19T11:31:02;2.50;97.60
6863;DHT22;3470;48.738;9.616;2023-01-19T11:36:15;2.50;97.80
6863;DHT22;3470;48.738;9.616;2023-01-19T11:38:43;2.40;98.00
6863;DHT22;3470;48.738;9.616;2023-01-19T11:41:29;2.40;98.30
6863;DHT22;3470;48.738;9.616;2023-01-19T11:44:17;2.30;98.40
6863;DHT22;3470;48.738;9.616;2023-01-19T11:46:46;2.30;98.40
6863;DHT22;3470;48.738;9.616;2023-01-19T11:49:28;2.10;98.50
6863;DHT22;3470;48.738;9.616;2023-01-19T11:52:11;2.00;98.90
6863;DHT22;3470;48.738;9.616;2023-01-19T11:54:46;1.70;98.90
6863;DHT22;3470;48.738;9.616;2023-01-19T11:57:15;1.60;99.20
6863;DHT22;3470;48.738;9.616;2023-01-19T11:59:41;1.60;99.80
6863;DHT22;3470;48.738;9.616;2023-01-19T12:04:47;1.90;99.90
6863;DHT22;3470;48.738;9.616;2023-01-19T12:07:18;1.70;99.80
6863;DHT22;3470;48.738;9.616;2023-01-19T12:09:48;1.70;99.90
6863;DHT22;3470;48.738;9.616;2023-01-19T12:12:30;1.90;99.90
6863;DHT22;3470;48.738;9.616;2023-01-19T12:14:58;1.70;99.90
6863;DHT22;3470;48.738;9.616;2023-01-19T12:17:46;1.50;99.90
6863;DHT22;3470;48.738;9.616;2023-01-19T12:22:53;1.50;99.90
6863;DHT22;3470;48.738;9.616;2023-01-19T12:25:28;1.50;99.90
6863;DHT22;3470;48.738;9.616;2023-01-19T12:27:57;1.60;99.90
6863;DHT22;3470;48.738;9.616;2023-01-19T12:30:28;1.60;99.90
6863;DHT22;3470;48.738;9.616;2023-01-19T12:33:21;1.50;99.90
6863;DHT22;3470;48.738;9.616;2023-01-19T12:35:59;1.60;99.90
6863;DHT22;3470;48.738;9.616;2023-01-19T12:39:00;1.30;99.90
6863;DHT22;3470;48.738;9.616;2023-01-19T12:41:32;1.30;99.90
6863;DHT22;3470;48.738;9.616;2023-01-19T12:46:36;1.30;99.90
6863;DHT22;3470;48.738;9.616;2023-01-19T12:49:21;1.30;99.90
6863;DHT22;3470;48.738;9.616;2023-01-19T12:51:48;1.40;99.90
6863;DHT22;3470;48.738;9.616;2023-01-19T12:54:31;1.50;99.90
6863;DHT22;3470;48.738;9.616;2023-01-19T12:57:05;1.40;99.90
6863;DHT22;3470;48.738;9.616;2023-01-19T12:59:35;1.30;99.90
6863;DHT22;3470;48.738;9.616;2023-01-19T13:15:52;1.40;99.90
6863;DHT22;3470;48.738;9.616;2023-01-19T13:18:27;1.30;99.90
6863;DHT22;3470;48.738;9.616;2023-01-19T13:21:01;1.20;99.90
6863;DHT22;3470;48.738;9.616;2023-01-19T13:26:17;1.20;99.90
6863;DHT22;3470;48.738;9.616;2023-01-19T13:28:49;1.10;99.90
6863;DHT22;3470;48.738;9.616;2023-01-19T13:31:15;1.10;99.90
6863;DHT22;3470;48.738;9.616;2023-01-19T13:33:48;1.10;99.90
6863;DHT22;3470;48.738;9.616;2023-01-19T13:36:30;0.90;99.90
6863;DHT22;3470;48.738;9.616;2023-01-19T13:38:58;0.90;99.90
6863;DHT22;3470;48.738;9.616;2023-01-19T13:41:28;0.90;99.90
6863;DHT22;3470;48.738;9.616;2023-01-19T13:44:08;0.90;99.90
6863;DHT22;3470;48.738;9.616;2023-01-19T13:46:38;0.90;99.90
6863;DHT22;3470;48.738;9.616;2023-01-19T13:49:18;0.90;99.90
6863;DHT22;3470;48.738;9.616;2023-01-19T13:54:59;0.90;99.90
6863;DHT22;3470;48.738;9.616;2023-01-19T13:57:37;0.90;99.90
6863;DHT22;3470;48.738;9.616;2023-01-19T14:05:14;0.80;99.90
6863;DHT22;3470;48.738;9.616;2023-01-19T14:07:40;0.70;99.90
6863;DHT22;3470;48.738;9.616;2023-01-19T14:10:12;0.70;99.90
6863;DHT22;3470;48.738;9.616;2023-01-19T14:12:38;0.60;99.90
6863;DHT22;3470;48.738;9.616;2023-01-19T14:15:05;0.60;99.90
6863;DHT22;3470;48.738;9.616;2023-01-19T14:17:37;0.70;99.90
6863;DHT22;3470;48.738;9.616;2023-01-19T14:20:03;0.70;99.90
6863;DHT22;3470;48.738;9.616;2023-01-19T14:22:44;0.70;99.90
6863;DHT22;3470;48.738;9.616;2023-01-19T14:25:33;0.70;99.90
6863;DHT22;3470;48.738;9.616;2023-01-19T14:28:40;0.70;99.90
6863;DHT22;3470;48.738;9.616;2023-01-19T14:33:44;0.80;99.90
6863;DHT22;3470;48.738;9.616;2023-01-19T14:36:27;0.80;99.90
6863;DHT22;3470;48.738;9.616;2023-01-19T14:38:58;0.80;99.90
6863;DHT22;3470;48.738;9.616;2023-01-19T14:41:29;0.90;99.90
6863;DHT22;3470;48.738;9.616;2023-01-19T14:43:58;0.90;99.90
6863;DHT22;3470;48.738;9.616;2023-01-19T14:46:24;0.90;99.90
6863;DHT22;3470;48.738;9.616;2023-01-19T14:48:59;0.90;99.90
6863;DHT22;3470;48.738;9.616;2023-01-19T14:51:27;0.90;99.90
6863;DHT22;3470;48.738;9.616;2023-01-19T14:53:55;0.90;99.90
6863;DHT22;3470;48.738;9.616;2023-01-19T14:56:26;0.80;99.90
6863;DHT22;3470;48.738;9.616;2023-01-19T14:58:52;0.90;99.90
6863;DHT22;3470;48.738;9.616;2023-01-19T15:01:19;0.90;99.90
6863;DHT22;3470;48.738;9.616;2023-01-19T15:03:44;0.80;99.90
6863;DHT22;3470;48.738;9.616;2023-01-19T15:06:13;0.70;99.90
6863;DHT22;3470;48.738;9.616;2023-01-19T15:08:39;0.60;99.90
6863;DHT22;3470;48.738;9.616;2023-01-19T15:11:09;0.70;99.90
6863;DHT22;3470;48.738;9.616;2023-01-19T15:13:36;0.60;99.90
6863;DHT22;3470;48.738;9.616;2023-01-19T15:16:04;0.60;99.90
6863;DHT22;3470;48.738;9.616;2023-01-19T15:18:30;0.60;99.90
6863;DHT22;3470;48.738;9.616;2023-01-19T15:20:55;0.60;99.90
6863;DHT22;3470;48.738;9.616;2023-01-19T15:23:33;0.70;99.90
6863;DHT22;3470;48.738;9.616;2023-01-19T15:26:00;0.70;99.90
6863;DHT22;3470;48.738;9.616;2023-01-19T15:28:26;0.70;99.90
6863;DHT22;3470;48.738;9.616;2023-01-19T15:30:51;0.70;99.90
6863;DHT22;3470;48.738;9.616;2023-01-19T15:33:24;0.60;99.90
6863;DHT22;3470;48.738;9.616;2023-01-19T15:35:50;0.70;99.90
6863;DHT22;3470;48.738;9.616;2023-01-19T15:38:16;0.60;99.90
6863;DHT22;3470;48.738;9.616;2023-01-19T15:40:41;0.60;99.90
6863;DHT22;3470;48.738;9.616;2023-01-19T15:43:09;0.50;99.90
6863;DHT22;3470;48.738;9.616;2023-01-19T15:45:42;0.50;99.90
6863;DHT22;3470;48.738;9.616;2023-01-19T15:48:10;0.50;99.90
6863;DHT22;3470;48.738;9.616;2023-01-19T15:50:41;0.50;99.90
6863;DHT22;3470;48.738;9.616;2023-01-19T15:53:13;0.40;99.90
6863;DHT22;3470;48.738;9.616;2023-01-19T15:55:39;0.40;99.90
6863;DHT22;3470;48.738;9.616;2023-01-19T15:58:05;0.40;99.90
6863;DHT22;3470;48.738;9.616;2023-01-19T16:00:32;0.30;99.90
6863;DHT22;3470;48.738;9.616;2023-01-19T16:02:58;0.20;99.90
6863;DHT22;3470;48.738;9.616;2023-01-19T16:05:24;0.20;99.90
6863;DHT22;3470;48.738;9.616;2023-01-19T16:07:49;0.20;99.90
6863;DHT22;3470;48.738;9.616;2023-01-19T16:10:15;0.20;99.90
6863;DHT22;3470;48.738;9.616;2023-01-19T16:12:42;0.10;99.90
6863;DHT22;3470;48.738;9.616;2023-01-19T16:15:08;0.10;99.90
6863;DHT22;3470;48.738;9.616;2023-01-19T16:17:34;0.00;99.90
6863;DHT22;3470;48.738;9.616;2023-01-19T16:20:01;0.00;99.90
6863;DHT22;3470;48.738;9.616;2023-01-19T16:22:27;0.00;99.90
6863;DHT22;3470;48.738;9.616;2023-01-19T16:24:52;0.10;99.90
6863;DHT22;3470;48.738;9.616;2023-01-19T16:27:23;0.10;99.90
6863;DHT22;3470;48.738;9.616;2023-01-19T16:29:49;0.00;99.90
6863;DHT22;3470;48.738;9.616;2023-01-19T16:32:14;-0.10;99.90
6863;DHT22;3470;48.738;9.616;2023-01-19T16:34:40;-0.10;99.90
6863;DHT22;3470;48.738;9.616;2023-01-19T16:37:06;-0.20;99.90
6863;DHT22;3470;48.738;9.616;2023-01-19T16:39:31;-0.20;99.90
6863;DHT22;3470;48.738;9.616;2023-01-19T16:41:57;-0.20;99.90
6863;DHT22;3470;48.738;9.616;2023-01-19T16:44:22;-0.30;99.90
6863;DHT22;3470;48.738;9.616;2023-01-19T16:46:48;-0.30;99.90
6863;DHT22;3470;48.738;9.616;2023-01-19T16:49:19;-0.40;99.90
6863;DHT22;3470;48.738;9.616;2023-01-19T16:51:46;-0.40;99.90
6863;DHT22;3470;48.738;9.616;2023-01-19T16:54:13;-0.40;99.90
6863;DHT22;3470;48.738;9.616;2023-01-19T16:56:39;-0.50;99.90
6863;DHT22;3470;48.738;9.616;2023-01-19T16:59:06;-0.50;99.90
6863;DHT22;3470;48.738;9.616;2023-01-19T17:01:31;-0.60;99.90
6863;DHT22;3470;48.738;9.616;2023-01-19T17:03:58;-0.70;99.90
6863;DHT22;3470;48.738;9.616;2023-01-19T17:06:24;-0.70;99.90
6863;DHT22;3470;48.738;9.616;2023-01-19T17:08:51;-0.80;99.90
6863;DHT22;3470;48.738;9.616;2023-01-19T17:11:21;-0.80;99.90
6863;DHT22;3470;48.738;9.616;2023-01-19T17:13:57;-0.80;99.90
6863;DHT22;3470;48.738;9.616;2023-01-19T17:16:25;-0.90;99.90
6863;DHT22;3470;48.738;9.616;2023-01-19T17:18:51;-1.00;99.90
6863;DHT22;3470;48.738;9.616;2023-01-19T17:21:17;-1.10;99.90
6863;DHT22;3470;48.738;9.616;2023-01-19T17:23:45;-1.10;99.90
6863;DHT22;3470;48.738;9.616;2023-01-19T17:26:11;-1.20;99.90
6863;DHT22;3470;48.738;9.616;2023-01-19T17:28:37;-1.20;99.90
6863;DHT22;3470;48.738;9.616;2023-01-19T17:31:04;-1.30;99.90
6863;DHT22;3470;48.738;9.616;2023-01-19T17:33:31;-1.30;99.90
6863;DHT22;3470;48.738;9.616;2023-01-19T17:36:08;-1.30;99.90
6863;DHT22;3470;48.738;9.616;2023-01-19T17:38:34;-1.40;99.90
6863;DHT22;3470;48.738;9.616;2023-01-19T17:41:00;-1.40;99.90
6863;DHT22;3470;48.738;9.616;2023-01-19T17:43:26;-1.50;99.90
6863;DHT22;3470;48.738;9.616;2023-01-19T17:45:52;-1.60;99.90
6863;DHT22;3470;48.738;9.616;2023-01-19T17:48:17;-1.70;99.90
6863;DHT22;3470;48.738;9.616;2023-01-19T17:50:43;-1.70;99.90
6863;DHT22;3470;48.738;9.616;2023-01-19T17:53:09;-1.80;99.90
6863;DHT22;3470;48.738;9.616;2023-01-19T17:55:35;-1.90;99.90
6863;DHT22;3470;48.738;9.616;2023-01-19T17:58:01;-2.00;99.90
6863;DHT22;3470;48.738;9.616;2023-01-19T18:00:27;-2.00;99.90
6863;DHT22;3470;48.738;9.616;2023-01-19T18:02:53;-2.10;99.90
6863;DHT22;3470;48.738;9.616;2023-01-19T18:05:18;-2.10;99.90
6863;DHT22;3470;48.738;9.616;2023-01-19T18:07:45;-2.00;99.90
6863;DHT22;3470;48.738;9.616;2023-01-19T18:10:11;-2.00;99.90
6863;DHT22;3470;48.738;9.616;2023-01-19T18:43:27;-1.80;99.90
6863;DHT22;3470;48.738;9.616;2023-01-19T18:45:52;-1.80;99.90
6863;DHT22;3470;48.738;9.616;2023-01-19T18:48:18;-1.60;99.90
6863;DHT22;3470;48.738;9.616;2023-01-19T18:50:43;-1.40;99.90
6863;DHT22;3470;48.738;9.616;2023-01-19T18:53:09;-1.40;99.90
6863;DHT22;3470;48.738;9.616;2023-01-19T18:55:35;-1.30;99.90
6863;DHT22;3470;48.738;9.616;2023-01-19T18:58:01;-1.30;99.90
6863;DHT22;3470;48.738;9.616;2023-01-19T19:00:28;-1.30;99.90
6863;DHT22;3470;48.738;9.616;2023-01-19T19:02:54;-1.30;99.90
6863;DHT22;3470;48.738;9.616;2023-01-19T19:05:22;-1.30;99.90
6863;DHT22;3470;48.738;9.616;2023-01-19T19:07:47;-1.40;99.90
6863;DHT22;3470;48.738;9.616;2023-01-19T19:10:13;-1.40;99.90
6863;DHT22;3470;48.738;9.616;2023-01-19T19:12:39;-1.30;99.90
6863;DHT22;3470;48.738;9.616;2023-01-19T19:15:05;-1.30;99.90
6863;DHT22;3470;48.738;9.616;2023-01-19T19:17:33;-1.30;99.90
6863;DHT22;3470;48.738;9.616;2023-01-19T19:19:59;-1.30;99.90
6863;DHT22;3470;48.738;9.616;2023-01-19T19:22:25;-1.30;99.90
6863;DHT22;3470;48.738;9.616;2023-01-19T19:24:50;-1.30;99.90
6863;DHT22;3470;48.738;9.616;2023-01-19T19:27:16;-1.20;99.90
6863;DHT22;3470;48.738;9.616;2023-01-19T19:29:44;-1.20;99.90
6863;DHT22;3470;48.738;9.616;2023-01-19T19:32:10;-1.20;99.90
6863;DHT22;3470;48.738;9.616;2023-01-19T19:34:35;-1.20;99.90
6863;DHT22;3470;48.738;9.616;2023-01-19T19:37:01;-1.20;99.90
6863;DHT22;3470;48.738;9.616;2023-01-19T19:39:27;-1.10;99.90
6863;DHT22;3470;48.738;9.616;2023-01-19T19:41:52;-1.20;99.90
6863;DHT22;3470;48.738;9.616;2023-01-19T19:44:18;-1.10;99.90
6863;DHT22;3470;48.738;9.616;2023-01-19T19:46:44;-1.20;99.90
6863;DHT22;3470;48.738;9.616;2023-01-19T19:49:09;-1.20;99.90
6863;DHT22;3470;48.738;9.616;2023-01-19T19:51:35;-1.20;99.90
6863;DHT22;3470;48.738;9.616;2023-01-19T19:54:01;-1.20;99.90
6863;DHT22;3470;48.738;9.616;2023-01-19T19:56:28;-1.20;99.90
6863;DHT22;3470;48.738;9.616;2023-01-19T19:58:56;-1.10;99.90
6863;DHT22;3470;48.738;9.616;2023-01-19T20:01:26;-1.10;99.90
6863;DHT22;3470;48.738;9.616;2023-01-19T20:03:57;-1.20;99.90
6863;DHT22;3470;48.738;9.616;2023-01-19T20:06:25;-1.20;99.90
6863;DHT22;3470;48.738;9.616;2023-01-19T20:08:53;-1.20;99.90
6863;DHT22;3470;48.738;9.616;2023-01-19T20:11:25;-1.20;99.90
6863;DHT22;3470;48.738;9.616;2023-01-19T20:13:51;-1.20;99.90
6863;DHT22;3470;48.738;9.616;2023-01-19T20:16:19;-1.20;99.90
6863;DHT22;3470;48.738;9.616;2023-01-19T20:18:47;-1.10;99.90
6863;DHT22;3470;48.738;9.616;2023-01-19T20:21:18;-1.20;99.90
6863;DHT22;3470;48.738;9.616;2023-01-19T20:23:44;-1.20;99.90
6863;DHT22;3470;48.738;9.616;2023-01-19T20:26:11;-1.30;99.90
6863;DHT22;3470;48.738;9.616;2023-01-19T20:28:38;-1.30;99.90
6863;DHT22;3470;48.738;9.616;2023-01-19T20:31:10;-1.30;99.90
6863;DHT22;3470;48.738;9.616;2023-01-19T20:33:36;-1.30;99.90
6863;DHT22;3470;48.738;9.616;2023-01-19T20:36:03;-1.40;99.90
6863;DHT22;3470;48.738;9.616;2023-01-19T20:38:28;-1.40;99.90
6863;DHT22;3470;48.738;9.616;2023-01-19T20:40:54;-1.40;99.90
6863;DHT22;3470;48.738;9.616;2023-01-19T20:43:19;-1.30;99.90
6863;DHT22;3470;48.738;9.616;2023-01-19T20:45:45;-1.30;99.90
6863;DHT22;3470;48.738;9.616;2023-01-19T20:48:10;-1.20;99.90
6863;DHT22;3470;48.738;9.616;2023-01-19T20:50:36;-1.20;99.90
6863;DHT22;3470;48.738;9.616;2023-01-19T20:53:02;-1.20;99.90
6863;DHT22;3470;48.738;9.616;2023-01-19T20:55:27;-1.20;99.90
6863;DHT22;3470;48.738;9.616;2023-01-19T20:57:53;-1.20;99.90
6863;DHT22;3470;48.738;9.616;2023-01-19T21:00:19;-1.20;99.90
6863;DHT22;3470;48.738;9.616;2023-01-19T21:02:45;-1.20;99.90
6863;DHT22;3470;48.738;9.616;2023-01-19T21:05:10;-1.20;99.90
6863;DHT22;3470;48.738;9.616;2023-01-19T21:07:36;-1.30;99.90
6863;DHT22;3470;48.738;9.616;2023-01-19T21:10:02;-1.30;99.90
6863;DHT22;3470;48.738;9.616;2023-01-19T21:12:27;-1.30;99.90
6863;DHT22;3470;48.738;9.616;2023-01-19T21:14:53;-1.30;99.90
6863;DHT22;3470;48.738;9.616;2023-01-19T21:17:19;-1.40;99.90
6863;DHT22;3470;48.738;9.616;2023-01-19T21:19:44;-1.30;99.90
6863;DHT22;3470;48.738;9.616;2023-01-19T21:22:10;-1.40;99.90
6863;DHT22;3470;48.738;9.616;2023-01-19T21:24:35;-1.40;99.90
6863;DHT22;3470;48.738;9.616;2023-01-19T21:27:01;-1.40;99.90
6863;DHT22;3470;48.738;9.616;2023-01-19T21:29:26;-1.40;99.90
6863;DHT22;3470;48.738;9.616;2023-01-19T21:31:52;-1.40;99.90
6863;DHT22;3470;48.738;9.616;2023-01-19T21:34:18;-1.50;99.90
6863;DHT22;3470;48.738;9.616;2023-01-19T21:36:43;-1.60;99.90
6863;DHT22;3470;48.738;9.616;2023-01-19T21:39:09;-1.60;99.90
6863;DHT22;3470;48.738;9.616;2023-01-19T21:41:35;-1.70;99.90
6863;DHT22;3470;48.738;9.616;2023-01-19T21:44:02;-1.70;99.90
6863;DHT22;3470;48.738;9.616;2023-01-19T21:46:29;-1.70;99.90
6863;DHT22;3470;48.738;9.616;2023-01-19T21:48:58;-1.80;99.90
6863;DHT22;3470;48.738;9.616;2023-01-19T21:51:24;-1.90;99.90
6863;DHT22;3470;48.738;9.616;2023-01-19T21:53:51;-2.00;99.90
6863;DHT22;3470;48.738;9.616;2023-01-19T21:56:17;-2.10;99.90
6863;DHT22;3470;48.738;9.616;2023-01-19T21:58:44;-2.10;99.90
6863;DHT22;3470;48.738;9.616;2023-01-19T22:01:11;-2.20;99.90
6863;DHT22;3470;48.738;9.616;2023-01-19T22:03:38;-2.30;99.90
6863;DHT22;3470;48.738;9.616;2023-01-19T22:06:06;-2.30;99.90
6863;DHT22;3470;48.738;9.616;2023-01-19T22:08:33;-2.40;99.90
6863;DHT22;3470;48.738;9.616;2023-01-19T22:11:18;-2.50;99.90
6863;DHT22;3470;48.738;9.616;2023-01-19T22:13:44;-2.60;99.90
6863;DHT22;3470;48.738;9.616;2023-01-19T22:16:13;-2.70;99.90
6863;DHT22;3470;48.738;9.616;2023-01-19T22:18:40;-2.70;99.90
6863;DHT22;3470;48.738;9.616;2023-01-19T22:21:11;-2.70;99.90
6863;DHT22;3470;48.738;9.616;2023-01-19T22:23:37;-2.80;99.90
6863;DHT22;3470;48.738;9.616;2023-01-19T22:26:04;-2.90;99.90
6863;DHT22;3470;48.738;9.616;2023-01-19T22:28:30;-2.80;99.90
6863;DHT22;3470;48.738;9.616;2023-01-19T22:31:08;-2.90;99.90
6863;DHT22;3470;48.738;9.616;2023-01-19T22:33:34;-2.90;99.90
6863;DHT22;3470;48.738;9.616;2023-01-19T22:36:23;-3.00;99.90
6863;DHT22;3470;48.738;9.616;2023-01-19T22:38:56;-3.00;99.90
6863;DHT22;3470;48.738;9.616;2023-01-19T22:41:37;-3.10;99.90
6863;DHT22;3470;48.738;9.616;2023-01-19T22:44:06;-3.10;99.90
6863;DHT22;3470;48.738;9.616;2023-01-19T22:46:33;-3.10;99.90
6863;DHT22;3470;48.738;9.616;2023-01-19T22:48:59;-3.10;99.90
6863;DHT22;3470;48.738;9.616;2023-01-19T22:51:26;-3.10;99.90
6863;DHT22;3470;48.738;9.616;2023-01-19T22:53:52;-3.10;99.90
6863;DHT22;3470;48.738;9.616;2023-01-19T22:56:22;-3.20;99.90
6863;DHT22;3470;48.738;9.616;2023-01-19T22:58:49;-3.20;99.90
6863;DHT22;3470;48.738;9.616;2023-01-19T23:01:23;-3.20;99.90
6863;DHT22;3470;48.738;9.616;2023-01-19T23:03:49;-3.20;99.90
6863;DHT22;3470;48.738;9.616;2023-01-19T23:06:18;-3.20;99.90
6863;DHT22;3470;48.738;9.616;2023-01-19T23:08:44;-3.20;99.90
6863;DHT22;3470;48.738;9.616;2023-01-19T23:11:16;-3.10;99.90
6863;DHT22;3470;48.738;9.616;2023-01-19T23:13:42;-3.00;99.90
6863;DHT22;3470;48.738;9.616;2023-01-19T23:16:09;-3.00;99.90
6863;DHT22;3470;48.738;9.616;2023-01-19T23:18:35;-2.90;99.90
